createdAt,value
2019-03-27T00:23:14.123Z,11.30
2019-03-27T01:07:33.796Z,22.70
2019-03-27T01:07:47.845Z,23.50
2019-03-27T01:08:47.838Z,21.60
2019-03-27T01:09:47.824Z,24.20
2019-03-27T01:10:47.834Z,23.70
2019-03-27T01:11:47.810Z,23.20
2019-03-27T01:12:47.852Z,22.90
2019-03-27T01:13:47.817Z,24.70
2019-03-27T01:14:47.808Z,23.50
2019-03-27T01:15:47.774Z,23.30
2019-03-27T01:16:47.769Z,25.00
2019-03-27T01:17:47.775Z,24.40
2019-03-27T01:18:47.749Z,26.50
2019-03-27T01:19:47.755Z,25.50
2019-03-27T01:20:47.760Z,25.00
2019-03-27T01:21:47.758Z,27.10
2019-03-27T01:22:47.751Z,27.80
2019-03-27T01:23:47.734Z,27.40
2019-03-27T01:24:47.711Z,26.60
2019-03-27T01:25:47.721Z,25.80
2019-03-27T01:26:47.711Z,26.40
2019-03-27T01:27:47.697Z,27.10
2019-03-27T01:28:47.688Z,27.50
2019-03-27T01:29:47.687Z,27.50
2019-03-27T01:30:47.755Z,27.80
2019-03-27T01:31:47.666Z,27.10
2019-03-27T01:32:47.678Z,25.90
2019-03-27T01:33:47.668Z,26.80
2019-03-27T01:34:47.663Z,26.00
2019-03-27T01:35:47.653Z,27.00
2019-03-27T01:36:47.639Z,26.50
2019-03-27T01:37:47.647Z,25.70
2019-03-27T01:38:47.637Z,26.10
2019-03-27T01:39:47.632Z,26.30
2019-03-27T01:40:47.613Z,25.70
2019-03-27T01:41:47.679Z,26.00
2019-03-27T01:42:47.594Z,24.70
2019-03-27T01:43:47.578Z,26.20
2019-03-27T01:44:47.597Z,24.50
2019-03-27T01:45:52.896Z,23.70
2019-03-27T01:46:47.564Z,22.20
2019-03-27T01:47:47.564Z,22.50
2019-03-27T01:48:47.551Z,19.90
2019-03-27T01:49:47.565Z,19.00
2019-03-27T01:50:47.543Z,19.30
2019-03-27T01:51:47.554Z,17.40
2019-03-27T01:52:47.539Z,17.50
2019-03-27T01:53:47.522Z,16.20
2019-03-27T01:54:47.512Z,15.80
2019-03-27T01:55:47.521Z,16.50
2019-03-27T01:56:47.491Z,14.30
2019-03-27T01:57:47.500Z,13.90
2019-03-27T01:58:47.478Z,14.30
2019-03-27T01:59:47.494Z,13.30
2019-03-27T02:00:47.487Z,13.60
2019-03-27T02:01:47.502Z,13.40
2019-03-27T02:02:47.467Z,13.40
2019-03-27T02:03:47.457Z,13.40
2019-03-27T02:04:47.458Z,14.00
2019-03-27T02:05:47.422Z,13.40
2019-03-27T02:06:47.448Z,13.10
2019-03-27T02:07:47.440Z,13.30
2019-03-27T02:08:47.421Z,12.60
2019-03-27T02:09:47.418Z,14.10
2019-03-27T02:10:47.405Z,13.20
2019-03-27T02:11:47.384Z,13.10
2019-03-27T02:12:47.390Z,15.30
2019-03-27T02:13:47.368Z,13.80
2019-03-27T02:14:47.361Z,13.50
2019-03-27T02:15:47.352Z,13.40
2019-03-27T02:16:47.370Z,13.50
2019-03-27T02:17:47.337Z,14.70
2019-03-27T02:18:47.348Z,13.70
2019-03-27T02:19:47.378Z,13.80
2019-03-27T02:20:47.382Z,15.20
2019-03-27T02:21:47.319Z,14.90
2019-03-27T02:22:47.317Z,13.80
2019-03-27T02:23:47.315Z,14.10
2019-03-27T02:24:47.311Z,14.10
2019-03-27T02:25:47.346Z,14.30
2019-03-27T02:26:47.334Z,14.30
2019-03-27T02:27:47.279Z,14.20
2019-03-27T02:28:47.274Z,14.90
2019-03-27T02:29:47.267Z,13.90
2019-03-27T02:30:47.271Z,14.10
2019-03-27T02:31:47.263Z,15.50
2019-03-27T02:32:47.256Z,14.50
2019-03-27T02:33:47.277Z,14.30
2019-03-27T02:34:47.231Z,16.00
2019-03-27T02:35:47.227Z,14.90
2019-03-27T02:36:47.207Z,15.40
2019-03-27T02:37:47.208Z,16.80
2019-03-27T02:38:47.211Z,15.70
2019-03-27T02:39:47.239Z,16.20
2019-03-27T02:40:47.172Z,17.80
2019-03-27T02:41:47.175Z,16.10
2019-03-27T02:42:47.169Z,16.00
2019-03-27T02:43:47.199Z,16.20
2019-03-27T02:44:47.163Z,15.70
2019-03-27T02:45:47.162Z,15.00
2019-03-27T02:46:47.158Z,15.80
2019-03-27T02:47:47.141Z,15.80
2019-03-27T02:48:47.145Z,16.20
2019-03-27T02:49:47.107Z,16.10
2019-03-27T02:50:47.246Z,15.60
2019-03-27T02:51:47.111Z,15.80
2019-03-27T02:52:47.112Z,15.90
2019-03-27T02:53:47.082Z,15.00
2019-03-27T02:54:47.074Z,16.00
2019-03-27T02:55:47.064Z,15.10
2019-03-27T02:56:47.065Z,16.10
2019-03-27T02:57:47.067Z,15.00
2019-03-27T02:58:47.109Z,15.40
2019-03-27T02:59:47.037Z,16.60
2019-03-27T03:00:47.044Z,15.40
2019-03-27T03:01:48.290Z,16.30
2019-03-27T03:02:47.028Z,16.80
2019-03-27T03:03:47.025Z,15.90
2019-03-27T03:04:47.015Z,16.10
2019-03-27T03:05:47.006Z,16.60
2019-03-27T03:06:47.002Z,16.50
2019-03-27T03:07:46.989Z,16.50
2019-03-27T03:08:47.000Z,16.70
2019-03-27T03:09:46.963Z,18.10
2019-03-27T03:10:46.959Z,16.50
2019-03-27T03:11:46.971Z,16.80
2019-03-27T03:12:46.940Z,17.50
2019-03-27T03:13:46.959Z,18.50
2019-03-27T03:14:46.946Z,18.00
2019-03-27T03:15:46.938Z,17.50
2019-03-27T03:16:46.925Z,16.60
2019-03-27T03:17:46.898Z,18.20
2019-03-27T03:18:46.911Z,18.90
2019-03-27T03:19:46.894Z,18.20
2019-03-27T03:20:46.898Z,17.20
2019-03-27T03:21:46.895Z,19.60
2019-03-27T03:22:46.891Z,19.20
2019-03-27T03:23:46.876Z,19.70
2019-03-27T03:24:46.880Z,19.90
2019-03-27T03:25:46.867Z,18.60
2019-03-27T03:26:50.623Z,20.60
2019-03-27T03:27:46.861Z,20.50
2019-03-27T03:28:46.850Z,20.20
2019-03-27T03:29:46.873Z,21.00
2019-03-27T03:30:46.826Z,19.70
2019-03-27T03:31:46.811Z,19.90
2019-03-27T03:32:46.820Z,19.40
2019-03-27T03:33:46.814Z,20.40
2019-03-27T03:34:46.806Z,20.30
2019-03-27T03:35:46.792Z,20.40
2019-03-27T03:36:46.787Z,20.00
2019-03-27T03:37:46.777Z,19.90
2019-03-27T03:38:46.771Z,19.10
2019-03-27T03:39:46.759Z,21.60
2019-03-27T03:40:46.741Z,20.80
2019-03-27T03:41:46.745Z,20.00
2019-03-27T03:42:46.744Z,20.20
2019-03-27T03:43:46.742Z,20.60
2019-03-27T03:44:46.742Z,20.60
2019-03-27T03:45:46.700Z,20.10
2019-03-27T03:46:58.775Z,21.70
2019-03-27T03:47:46.741Z,20.60
2019-03-27T03:48:46.677Z,21.10
2019-03-27T03:49:46.744Z,21.20
2019-03-27T03:50:46.692Z,19.70
2019-03-27T03:51:46.683Z,20.40
2019-03-27T03:52:46.679Z,20.00
2019-03-27T03:53:46.672Z,19.60
2019-03-27T03:54:46.660Z,19.70
2019-03-27T03:55:46.631Z,19.90
2019-03-27T03:56:46.626Z,20.70
2019-03-27T03:57:46.634Z,20.90
2019-03-27T03:58:46.605Z,20.60
2019-03-27T03:59:46.631Z,20.80
2019-03-27T04:00:46.641Z,21.20
2019-03-27T04:01:46.603Z,20.80
2019-03-27T04:02:46.594Z,19.20
2019-03-27T04:03:46.594Z,21.00
2019-03-27T04:04:46.561Z,20.40
2019-03-27T04:05:46.558Z,21.90
2019-03-27T04:06:46.553Z,21.10
2019-03-27T04:07:46.541Z,19.80
2019-03-27T04:08:46.525Z,20.60
2019-03-27T04:09:46.534Z,18.90
2019-03-27T04:10:46.543Z,20.20
2019-03-27T04:11:46.502Z,19.10
2019-03-27T04:12:46.554Z,19.00
2019-03-27T04:13:46.511Z,19.20
2019-03-27T04:14:46.495Z,15.90
2019-03-27T04:15:46.478Z,15.80
2019-03-27T04:16:46.492Z,17.00
2019-03-27T04:17:46.488Z,16.90
2019-03-27T04:18:46.485Z,17.30
2019-03-27T04:19:46.621Z,17.10
2019-03-27T04:20:46.470Z,18.00
2019-03-27T04:21:46.469Z,16.80
2019-03-27T04:22:46.439Z,17.80
2019-03-27T04:23:46.454Z,16.90
2019-03-27T04:24:46.442Z,16.70
2019-03-27T04:26:08.111Z,16.60
2019-03-27T04:26:46.427Z,16.90
2019-03-27T04:27:46.419Z,18.00
2019-03-27T04:28:46.412Z,17.30
2019-03-27T04:29:46.393Z,17.30
2019-03-27T04:30:46.394Z,16.10
2019-03-27T04:31:46.362Z,15.70
2019-03-27T04:32:46.369Z,15.70
2019-03-27T04:33:46.380Z,16.90
2019-03-27T04:34:47.428Z,15.90
2019-03-27T04:35:46.356Z,16.20
2019-03-27T04:36:46.325Z,16.20
2019-03-27T04:37:46.317Z,17.30
2019-03-27T04:38:46.340Z,17.00
2019-03-27T04:39:46.313Z,16.60
2019-03-27T04:40:46.315Z,17.00
2019-03-27T04:41:46.318Z,16.30
2019-03-27T04:42:46.399Z,17.00
2019-03-27T04:43:46.267Z,16.40
2019-03-27T04:44:46.284Z,17.30
2019-03-27T04:45:46.274Z,16.90
2019-03-27T04:46:46.280Z,17.10
2019-03-27T04:47:46.265Z,16.40
2019-03-27T04:48:46.249Z,17.60
2019-03-27T04:49:46.228Z,16.90
2019-03-27T04:50:46.393Z,16.60
2019-03-27T04:51:46.214Z,17.00
2019-03-27T04:52:46.225Z,16.50
2019-03-27T04:53:46.215Z,16.50
2019-03-27T04:54:46.216Z,15.30
2019-03-27T04:55:46.244Z,14.50
2019-03-27T04:56:46.180Z,14.20
2019-03-27T04:57:46.211Z,15.30
2019-03-27T04:58:46.175Z,12.90
2019-03-27T04:59:46.180Z,13.00
2019-03-27T05:00:46.162Z,13.70
2019-03-27T05:01:46.148Z,13.70
2019-03-27T05:02:46.161Z,13.20
2019-03-27T05:03:46.142Z,12.80
2019-03-27T05:04:46.144Z,12.70
2019-03-27T05:05:46.134Z,12.20
2019-03-27T05:06:46.126Z,11.80
2019-03-27T05:07:46.087Z,11.30
2019-03-27T05:08:46.112Z,11.70
2019-03-27T05:09:46.091Z,10.70
2019-03-27T05:10:46.127Z,11.10
2019-03-27T05:11:46.075Z,11.20
2019-03-27T05:12:46.118Z,11.70
2019-03-27T05:13:46.070Z,12.80
2019-03-27T05:14:46.041Z,13.20
2019-03-27T05:15:46.060Z,11.90
2019-03-27T05:16:46.077Z,11.90
2019-03-27T05:17:46.640Z,11.40
2019-03-27T05:18:46.010Z,11.00
2019-03-27T05:19:46.021Z,11.10
2019-03-27T05:20:46.007Z,11.00
2019-03-27T05:21:46.002Z,9.90
2019-03-27T05:22:45.980Z,10.30
2019-03-27T05:23:45.993Z,9.30
2019-03-27T05:24:46.020Z,9.20
2019-03-27T05:25:45.996Z,9.90
2019-03-27T05:26:46.009Z,9.40
2019-03-27T05:27:45.954Z,8.90
2019-03-27T05:28:45.946Z,10.50
2019-03-27T05:29:45.987Z,9.30
2019-03-27T05:30:45.925Z,9.80
2019-03-27T05:31:45.925Z,8.40
2019-03-27T05:32:45.931Z,9.00
2019-03-27T05:33:45.891Z,8.60
2019-03-27T05:34:45.904Z,9.20
2019-03-27T05:35:45.908Z,8.40
2019-03-27T05:36:45.879Z,8.10
2019-03-27T05:37:45.880Z,8.10
2019-03-27T05:38:45.885Z,8.10
2019-03-27T05:39:45.877Z,8.50
2019-03-27T05:40:45.899Z,8.80
2019-03-27T05:41:45.848Z,8.70
2019-03-27T05:42:59.660Z,8.00
2019-03-27T05:43:45.834Z,8.20
2019-03-27T05:44:45.849Z,8.20
2019-03-27T05:45:45.844Z,8.20
2019-03-27T05:46:45.865Z,8.70
2019-03-27T05:47:58.650Z,9.10
2019-03-27T05:48:45.802Z,8.30
2019-03-27T05:49:45.803Z,8.50
2019-03-27T05:50:45.786Z,7.90
2019-03-27T05:51:45.766Z,8.30
2019-03-27T05:52:45.759Z,8.50
2019-03-27T05:53:45.770Z,7.80
2019-03-27T05:54:45.751Z,8.50
2019-03-27T05:55:45.735Z,8.70
2019-03-27T05:56:45.748Z,8.40
2019-03-27T05:57:45.727Z,9.00
2019-03-27T05:58:45.738Z,8.10
2019-03-27T05:59:45.701Z,9.60
2019-03-27T06:00:45.690Z,8.00
2019-03-27T06:01:45.710Z,9.20
2019-03-27T06:02:45.680Z,9.70
2019-03-27T06:03:45.690Z,9.40
2019-03-27T06:04:45.664Z,9.50
2019-03-27T06:05:45.681Z,9.60
2019-03-27T06:06:45.663Z,9.70
2019-03-27T06:07:45.648Z,9.90
2019-03-27T06:08:45.647Z,9.40
2019-03-27T06:09:45.640Z,9.70
2019-03-27T06:10:45.642Z,10.20
2019-03-27T06:11:45.633Z,10.00
2019-03-27T06:12:45.592Z,10.00
2019-03-27T06:13:45.603Z,10.00
2019-03-27T06:14:45.582Z,10.70
2019-03-27T06:15:45.575Z,10.40
2019-03-27T06:16:45.578Z,10.40
2019-03-27T06:17:45.580Z,10.40
2019-03-27T06:18:45.574Z,10.70
2019-03-27T06:19:45.560Z,10.60
2019-03-27T06:20:45.556Z,9.70
2019-03-27T06:21:45.548Z,10.50
2019-03-27T06:22:45.523Z,11.20
2019-03-27T06:23:45.580Z,10.40
2019-03-27T06:24:45.526Z,10.90
2019-03-27T06:25:45.520Z,10.60
2019-03-27T06:26:45.512Z,11.40
2019-03-27T06:27:45.498Z,10.40
2019-03-27T06:28:45.495Z,11.10
2019-03-27T06:29:45.523Z,11.20
2019-03-27T06:30:45.479Z,11.30
2019-03-27T06:31:45.507Z,11.10
2019-03-27T06:32:45.493Z,11.50
2019-03-27T06:33:45.444Z,11.20
2019-03-27T06:34:45.463Z,11.70
2019-03-27T06:35:45.434Z,11.60
2019-03-27T06:36:45.434Z,11.30
2019-03-27T06:37:45.418Z,11.70
2019-03-27T06:38:45.420Z,11.40
2019-03-27T06:39:45.411Z,11.60
2019-03-27T06:40:45.408Z,10.90
2019-03-27T06:41:45.381Z,11.10
2019-03-27T06:42:45.395Z,10.40
2019-03-27T06:43:45.359Z,10.30
2019-03-27T06:44:45.415Z,11.30
2019-03-27T06:45:45.357Z,10.50
2019-03-27T06:46:45.345Z,10.90
2019-03-27T06:47:45.347Z,10.30
2019-03-27T06:48:45.387Z,9.90
2019-03-27T06:49:45.319Z,10.10
2019-03-27T06:50:45.324Z,9.50
2019-03-27T06:51:45.298Z,9.10
2019-03-27T06:52:45.292Z,9.20
2019-03-27T06:53:45.302Z,9.50
2019-03-27T06:54:45.336Z,9.10
2019-03-27T06:55:45.288Z,10.00
2019-03-27T06:56:45.295Z,9.10
2019-03-27T06:57:45.282Z,8.20
2019-03-27T06:58:54.482Z,8.80
2019-03-27T06:59:45.263Z,8.60
2019-03-27T07:00:45.248Z,8.20
2019-03-27T07:01:45.241Z,8.30
2019-03-27T07:02:45.233Z,9.40
2019-03-27T07:03:45.233Z,8.60
2019-03-27T07:04:45.225Z,7.80
2019-03-27T07:05:45.191Z,7.90
2019-03-27T07:06:45.204Z,10.20
2019-03-27T07:07:45.196Z,7.10
2019-03-27T07:08:45.180Z,7.40
2019-03-27T07:09:45.188Z,7.20
2019-03-27T07:10:45.220Z,6.70
2019-03-27T07:11:45.220Z,7.30
2019-03-27T07:12:45.166Z,6.60
2019-03-27T07:13:45.162Z,7.10
2019-03-27T07:14:45.177Z,7.10
2019-03-27T07:15:45.107Z,7.20
2019-03-27T07:16:45.115Z,8.30
2019-03-27T07:17:45.120Z,8.90
2019-03-27T07:18:45.111Z,7.10
2019-03-27T07:19:45.090Z,6.90
2019-03-27T07:20:45.102Z,7.30
2019-03-27T07:21:45.083Z,6.50
2019-03-27T07:22:45.064Z,6.50
2019-03-27T07:23:45.062Z,8.10
2019-03-27T07:24:45.061Z,6.60
2019-03-27T07:25:45.062Z,7.40
2019-03-27T07:26:45.040Z,6.50
2019-03-27T07:27:45.056Z,6.60
2019-03-27T07:28:45.045Z,7.20
2019-03-27T07:29:45.006Z,7.00
2019-03-27T07:30:45.011Z,6.90
2019-03-27T07:31:44.998Z,7.50
2019-03-27T07:32:44.993Z,6.30
2019-03-27T07:33:45.000Z,7.00
2019-03-27T07:34:44.978Z,7.00
2019-03-27T07:35:44.960Z,6.70
2019-03-27T07:36:45.124Z,6.80
2019-03-27T07:37:44.956Z,8.60
2019-03-27T07:38:44.941Z,6.80
2019-03-27T07:39:44.945Z,6.90
2019-03-27T07:40:44.953Z,6.90
2019-03-27T07:41:44.925Z,7.20
2019-03-27T07:42:44.911Z,7.20
2019-03-27T07:43:44.900Z,7.10
2019-03-27T07:44:44.899Z,6.40
2019-03-27T07:45:44.899Z,6.80
2019-03-27T07:46:44.927Z,6.40
2019-03-27T07:47:47.962Z,7.30
2019-03-27T07:48:53.726Z,7.60
2019-03-27T07:49:44.879Z,6.90
2019-03-27T07:50:44.868Z,6.70
2019-03-27T07:51:44.865Z,6.60
2019-03-27T07:52:44.862Z,6.70
2019-03-27T07:53:44.846Z,6.70
2019-03-27T07:54:44.837Z,7.20
2019-03-27T07:55:44.824Z,6.80
2019-03-27T07:56:44.808Z,7.90
2019-03-27T07:57:44.807Z,7.30
2019-03-27T07:58:44.813Z,6.40
2019-03-27T07:59:44.799Z,6.60
2019-03-27T08:00:44.795Z,6.40
2019-03-27T08:01:44.770Z,6.70
2019-03-27T08:02:44.780Z,6.80
2019-03-27T08:03:44.781Z,7.00
2019-03-27T08:04:44.752Z,7.00
2019-03-27T08:05:44.739Z,6.80
2019-03-27T08:06:44.748Z,6.80
2019-03-27T08:07:44.733Z,7.00
2019-03-27T08:08:44.707Z,7.30
2019-03-27T08:09:44.708Z,7.00
2019-03-27T08:10:44.695Z,6.90
2019-03-27T08:11:44.706Z,7.80
2019-03-27T08:12:44.738Z,8.40
2019-03-27T08:13:44.694Z,7.10
2019-03-27T08:14:44.688Z,6.70
2019-03-27T08:15:44.660Z,6.80
2019-03-27T08:16:44.664Z,7.30
2019-03-27T08:17:44.661Z,7.10
2019-03-27T08:18:44.654Z,6.70
2019-03-27T08:19:44.639Z,7.00
2019-03-27T08:20:44.628Z,7.30
2019-03-27T08:21:44.621Z,7.20
2019-03-27T08:22:44.635Z,7.40
2019-03-27T08:23:44.608Z,7.40
2019-03-27T08:24:44.585Z,6.90
2019-03-27T08:25:44.632Z,6.80
2019-03-27T08:26:44.591Z,8.40
2019-03-27T08:27:44.583Z,7.40
2019-03-27T08:28:44.566Z,6.80
2019-03-27T08:29:44.559Z,8.10
2019-03-27T08:30:44.539Z,6.20
2019-03-27T08:31:44.591Z,7.00
2019-03-27T08:32:44.539Z,8.40
2019-03-27T08:33:44.542Z,7.70
2019-03-27T08:34:44.521Z,7.10
2019-03-27T08:35:44.508Z,8.80
2019-03-27T08:36:44.511Z,7.50
2019-03-27T08:37:44.528Z,7.60
2019-03-27T08:38:44.488Z,8.50
2019-03-27T08:39:44.498Z,9.30
2019-03-27T08:40:44.557Z,7.50
2019-03-27T08:41:44.459Z,9.30
2019-03-27T08:42:44.465Z,7.60
2019-03-27T08:43:44.435Z,7.80
2019-03-27T08:44:44.451Z,7.70
2019-03-27T08:45:44.446Z,8.00
2019-03-27T08:46:44.429Z,7.10
2019-03-27T08:47:44.436Z,7.50
2019-03-27T08:48:44.411Z,7.80
2019-03-27T08:49:44.401Z,9.10
2019-03-27T08:50:44.412Z,8.40
2019-03-27T08:51:44.374Z,7.90
2019-03-27T08:52:44.379Z,8.70
2019-03-27T08:53:44.385Z,10.50
2019-03-27T08:54:44.360Z,8.00
2019-03-27T08:55:44.362Z,7.60
2019-03-27T08:56:44.357Z,8.80
2019-03-27T08:57:44.336Z,8.60
2019-03-27T08:58:44.344Z,8.20
2019-03-27T08:59:44.331Z,10.80
2019-03-27T09:00:44.303Z,8.20
2019-03-27T09:01:44.296Z,9.90
2019-03-27T09:02:44.314Z,8.10
2019-03-27T09:03:44.302Z,8.10
2019-03-27T09:04:44.292Z,9.20
2019-03-27T09:05:44.280Z,8.70
2019-03-27T09:06:44.278Z,9.00
2019-03-27T09:07:44.272Z,9.20
2019-03-27T09:08:44.240Z,8.90
2019-03-27T09:09:44.241Z,9.40
2019-03-27T09:10:44.224Z,8.20
2019-03-27T09:11:44.246Z,9.10
2019-03-27T09:12:44.272Z,8.30
2019-03-27T09:13:44.219Z,8.40
2019-03-27T09:14:44.205Z,9.40
2019-03-27T09:15:44.179Z,9.60
2019-03-27T09:16:44.199Z,10.20
2019-03-27T09:17:44.170Z,8.70
2019-03-27T09:18:44.189Z,9.90
2019-03-27T09:19:44.182Z,9.70
2019-03-27T09:20:44.154Z,11.10
2019-03-27T09:21:44.160Z,10.10
2019-03-27T09:22:44.139Z,10.70
2019-03-27T09:23:45.734Z,10.10
2019-03-27T09:24:44.119Z,10.40
2019-03-27T09:25:44.133Z,9.70
2019-03-27T09:26:44.118Z,9.70
2019-03-27T09:27:44.124Z,10.70
2019-03-27T09:28:44.095Z,11.00
2019-03-27T09:29:44.090Z,11.90
2019-03-27T09:30:44.061Z,11.00
2019-03-27T09:31:45.312Z,11.10
2019-03-27T09:32:44.072Z,11.40
2019-03-27T09:33:44.053Z,11.50
2019-03-27T09:34:44.055Z,13.20
2019-03-27T09:35:44.042Z,12.60
2019-03-27T09:36:44.033Z,11.60
2019-03-27T09:37:44.017Z,13.60
2019-03-27T09:38:44.016Z,10.90
2019-03-27T09:39:44.009Z,11.20
2019-03-27T09:40:44.001Z,11.20
2019-03-27T09:41:43.980Z,12.30
2019-03-27T09:42:43.975Z,12.10
2019-03-27T09:43:43.965Z,11.70
2019-03-27T09:44:43.957Z,11.40
2019-03-27T09:45:43.990Z,11.00
2019-03-27T09:46:43.960Z,11.80
2019-03-27T09:47:43.950Z,12.70
2019-03-27T09:48:43.943Z,12.40
2019-03-27T09:49:49.493Z,12.90
2019-03-27T09:50:44.028Z,11.40
2019-03-27T09:51:43.968Z,11.50
2019-03-27T09:52:43.920Z,12.20
2019-03-27T09:53:43.893Z,11.80
2019-03-27T09:54:43.909Z,13.00
2019-03-27T09:55:43.899Z,12.30
2019-03-27T09:56:43.878Z,11.50
2019-03-27T09:57:43.854Z,10.90
2019-03-27T09:58:43.886Z,11.70
2019-03-27T09:59:43.847Z,12.00
2019-03-27T10:00:43.853Z,11.30
2019-03-27T10:01:43.851Z,12.00
2019-03-27T10:02:43.841Z,12.30
2019-03-27T10:03:43.863Z,12.40
2019-03-27T10:04:43.835Z,11.90
2019-03-27T10:05:43.799Z,12.40
2019-03-27T10:06:43.842Z,12.40
2019-03-27T10:07:43.793Z,11.70
2019-03-27T10:08:43.784Z,11.00
2019-03-27T10:09:43.783Z,10.90
2019-03-27T10:10:43.767Z,11.20
2019-03-27T10:11:43.746Z,11.40
2019-03-27T10:12:43.804Z,11.10
2019-03-27T10:13:43.749Z,11.60
2019-03-27T10:14:43.751Z,12.10
2019-03-27T10:15:43.775Z,11.70
2019-03-27T10:16:43.715Z,11.90
2019-03-27T10:17:43.733Z,12.00
2019-03-27T10:18:43.713Z,11.10
2019-03-27T10:19:43.696Z,12.60
2019-03-27T10:20:43.680Z,12.00
2019-03-27T10:21:43.687Z,11.80
2019-03-27T10:22:43.667Z,12.30
2019-03-27T10:23:43.712Z,12.50
2019-03-27T10:24:43.671Z,12.80
2019-03-27T10:25:43.658Z,13.20
2019-03-27T10:26:43.642Z,12.40
2019-03-27T10:27:43.627Z,12.20
2019-03-27T10:28:43.641Z,13.30
2019-03-27T10:29:43.625Z,13.60
2019-03-27T10:30:43.605Z,11.80
2019-03-27T10:31:43.595Z,12.20
2019-03-27T10:32:43.588Z,11.80
2019-03-27T10:33:43.587Z,11.40
2019-03-27T10:34:43.594Z,10.90
2019-03-27T10:35:43.568Z,11.30
2019-03-27T10:36:43.577Z,11.00
2019-03-27T10:37:43.559Z,11.40
2019-03-27T10:38:43.569Z,10.70
2019-03-27T10:39:43.526Z,11.40
2019-03-27T10:40:43.520Z,11.60
2019-03-27T10:41:43.574Z,9.80
2019-03-27T10:42:43.527Z,10.90
2019-03-27T10:43:43.502Z,11.40
2019-03-27T10:44:43.495Z,12.80
2019-03-27T10:45:43.503Z,11.90
2019-03-27T10:46:43.490Z,12.40
2019-03-27T10:47:43.466Z,11.60
2019-03-27T10:48:52.438Z,12.10
2019-03-27T10:49:43.458Z,11.40
2019-03-27T10:50:43.469Z,12.10
2019-03-27T10:51:43.490Z,10.90
2019-03-27T10:52:43.448Z,10.60
2019-03-27T10:53:43.447Z,10.80
2019-03-27T10:54:43.477Z,10.40
2019-03-27T10:55:43.427Z,9.80
2019-03-27T10:56:43.425Z,9.80
2019-03-27T10:57:43.399Z,10.00
2019-03-27T10:58:43.390Z,10.60
2019-03-27T10:59:43.403Z,8.50
2019-03-27T11:00:43.593Z,10.20
2019-03-27T11:01:43.356Z,9.10
2019-03-27T11:02:43.375Z,8.80
2019-03-27T11:03:43.377Z,8.60
2019-03-27T11:04:43.350Z,8.50
2019-03-27T11:05:43.342Z,8.00
2019-03-27T11:06:43.346Z,8.30
2019-03-27T11:07:43.332Z,8.80
2019-03-27T11:08:43.329Z,9.00
2019-03-27T11:09:43.329Z,8.20
2019-03-27T11:10:43.353Z,8.40
2019-03-27T11:11:43.290Z,8.80
2019-03-27T11:12:43.288Z,8.90
2019-03-27T11:13:43.301Z,9.70
2019-03-27T11:14:43.294Z,9.70
2019-03-27T11:15:43.280Z,10.40
2019-03-27T11:16:43.258Z,9.70
2019-03-27T11:17:43.261Z,9.50
2019-03-27T11:18:43.286Z,9.40
2019-03-27T11:19:43.251Z,9.00
2019-03-27T11:20:43.248Z,10.60
2019-03-27T11:21:43.221Z,9.70
2019-03-27T11:22:43.215Z,9.50
2019-03-27T11:23:43.200Z,10.00
2019-03-27T11:24:43.221Z,9.50
2019-03-27T11:25:43.219Z,9.50
2019-03-27T11:26:43.199Z,9.30
2019-03-27T11:27:43.178Z,10.30
2019-03-27T11:28:43.175Z,9.70
2019-03-27T11:29:43.206Z,10.10
2019-03-27T11:30:43.158Z,9.40
2019-03-27T11:31:43.171Z,9.20
2019-03-27T11:32:43.141Z,9.20
2019-03-27T11:33:43.128Z,8.30
2019-03-27T11:34:43.146Z,7.60
2019-03-27T11:35:43.124Z,7.50
2019-03-27T11:36:43.127Z,7.90
2019-03-27T11:37:43.132Z,8.40
2019-03-27T11:38:43.143Z,9.30
2019-03-27T11:39:43.093Z,9.60
2019-03-27T11:40:43.096Z,8.30
2019-03-27T11:41:43.078Z,7.50
2019-03-27T11:42:43.084Z,7.80
2019-03-27T11:43:54.119Z,6.90
2019-03-27T11:44:43.063Z,8.70
2019-03-27T11:45:43.063Z,7.30
2019-03-27T11:46:43.054Z,7.90
2019-03-27T11:47:43.044Z,7.90
2019-03-27T11:48:43.031Z,7.70
2019-03-27T11:49:43.012Z,7.80
2019-03-27T11:50:45.220Z,8.10
2019-03-27T11:51:43.055Z,7.20
2019-03-27T11:52:43.004Z,7.70
2019-03-27T11:53:42.997Z,7.80
2019-03-27T11:54:42.976Z,8.40
2019-03-27T11:55:42.979Z,8.20
2019-03-27T11:56:42.984Z,8.00
2019-03-27T11:57:42.966Z,8.40
2019-03-27T11:58:42.973Z,7.70
2019-03-27T11:59:53.193Z,7.30
2019-03-27T12:00:53.777Z,7.20
2019-03-27T12:01:43.871Z,7.00
2019-03-27T12:02:42.923Z,7.50
2019-03-27T12:03:42.935Z,6.90
2019-03-27T12:04:42.922Z,8.70
2019-03-27T12:05:45.598Z,7.00
2019-03-27T12:06:42.907Z,6.60
2019-03-27T12:07:42.920Z,6.90
2019-03-27T12:08:42.891Z,6.80
2019-03-27T12:09:42.895Z,7.50
2019-03-27T12:10:42.889Z,7.30
2019-03-27T12:11:42.880Z,7.80
2019-03-27T12:12:42.874Z,6.50
2019-03-27T12:13:42.867Z,6.80
2019-03-27T12:14:42.865Z,6.60
2019-03-27T12:15:42.844Z,7.10
2019-03-27T12:16:42.832Z,6.30
2019-03-27T12:17:42.847Z,7.50
2019-03-27T12:18:42.821Z,6.40
2019-03-27T12:19:42.825Z,6.70
2019-03-27T12:20:42.821Z,6.00
2019-03-27T12:21:42.857Z,7.20
2019-03-27T12:22:42.810Z,5.40
2019-03-27T12:23:42.790Z,6.10
2019-03-27T12:24:42.772Z,5.80
2019-03-27T12:25:42.786Z,8.40
2019-03-27T12:26:42.761Z,6.90
2019-03-27T12:27:42.773Z,8.10
2019-03-27T12:28:42.767Z,5.30
2019-03-27T12:29:42.777Z,5.40
2019-03-27T12:30:42.778Z,6.50
2019-03-27T12:31:42.765Z,8.90
2019-03-27T12:32:42.751Z,14.40
2019-03-27T12:33:42.955Z,8.80
2019-03-27T12:34:42.736Z,18.20
2019-03-27T12:35:42.751Z,7.00
2019-03-27T12:36:44.527Z,8.20
2019-03-27T12:37:42.769Z,5.50
2019-03-27T12:38:42.723Z,5.20
2019-03-27T12:39:42.720Z,6.60
2019-03-27T12:40:42.716Z,4.90
2019-03-27T12:41:42.715Z,6.20
2019-03-27T12:42:42.707Z,4.70
2019-03-27T12:43:42.702Z,5.50
2019-03-27T12:44:42.736Z,4.90
2019-03-27T12:45:42.675Z,4.80
2019-03-27T12:46:42.686Z,5.30
2019-03-27T12:47:43.194Z,5.00
2019-03-27T12:48:42.680Z,4.80
2019-03-27T12:49:42.681Z,5.40
2019-03-27T12:50:44.364Z,6.20
2019-03-27T12:51:42.679Z,5.10
2019-03-27T12:52:42.655Z,5.40
2019-03-27T12:53:42.672Z,5.60
2019-03-27T12:54:42.654Z,6.00
2019-03-27T12:55:42.668Z,5.50
2019-03-27T12:56:42.633Z,6.70
2019-03-27T12:57:42.688Z,8.60
2019-03-27T12:58:42.643Z,5.20
2019-03-27T12:59:42.683Z,6.10
2019-03-27T13:00:42.654Z,5.40
2019-03-27T13:01:42.703Z,6.40
2019-03-27T13:02:42.640Z,7.30
2019-03-27T13:03:44.515Z,5.10
2019-03-27T13:04:42.627Z,6.60
2019-03-27T13:05:42.627Z,6.00
2019-03-27T13:06:42.615Z,7.20
2019-03-27T13:07:49.940Z,5.40
2019-03-27T13:08:42.601Z,6.30
2019-03-27T13:09:42.604Z,6.90
2019-03-27T13:10:42.595Z,6.20
2019-03-27T13:11:42.622Z,6.10
2019-03-27T13:12:42.596Z,7.70
2019-03-27T13:13:42.641Z,6.30
2019-03-27T13:14:42.611Z,5.40
2019-03-27T13:15:42.583Z,6.30
2019-03-27T13:16:42.601Z,5.50
2019-03-27T13:17:42.586Z,5.40
2019-03-27T13:18:42.575Z,5.50
2019-03-27T13:19:42.581Z,6.40
2019-03-27T13:20:42.574Z,5.90
2019-03-27T13:21:42.566Z,7.90
2019-03-27T13:22:42.573Z,5.30
2019-03-27T13:23:42.576Z,5.40
2019-03-27T13:24:42.583Z,5.30
2019-03-27T13:25:42.583Z,5.80
2019-03-27T13:26:42.577Z,6.60
2019-03-27T13:27:42.573Z,5.80
2019-03-27T13:28:48.899Z,5.50
2019-03-27T13:29:42.565Z,5.00
2019-03-27T13:30:42.571Z,4.80
2019-03-27T13:31:42.564Z,6.20
2019-03-27T13:32:42.552Z,6.20
2019-03-27T13:33:42.600Z,5.70
2019-03-27T13:34:42.558Z,6.20
2019-03-27T13:35:42.556Z,5.30
2019-03-27T13:36:42.559Z,5.80
2019-03-27T13:37:42.557Z,6.70
2019-03-27T13:38:42.541Z,6.30
2019-03-27T13:39:42.555Z,8.30
2019-03-27T13:40:42.537Z,9.50
2019-03-27T13:41:42.547Z,6.80
2019-03-27T13:42:42.538Z,8.00
2019-03-27T13:43:42.537Z,5.10
2019-03-27T13:44:42.507Z,6.90
2019-03-27T13:45:42.520Z,5.30
2019-03-27T13:46:42.527Z,5.60
2019-03-27T13:47:42.519Z,6.00
2019-03-27T13:48:42.510Z,5.50
2019-03-27T13:49:42.506Z,5.30
2019-03-27T13:50:42.516Z,5.40
2019-03-27T13:51:42.547Z,5.90
2019-03-27T13:52:42.507Z,7.30
2019-03-27T13:53:42.518Z,6.00
2019-03-27T13:54:42.499Z,4.50
2019-03-27T13:55:42.501Z,5.30
2019-03-27T13:56:42.491Z,5.60
2019-03-27T13:57:42.495Z,5.10
2019-03-27T13:58:42.492Z,4.60
2019-03-27T13:59:42.630Z,5.00
2019-03-27T14:00:42.492Z,5.20
2019-03-27T14:01:42.485Z,4.60
2019-03-27T14:02:42.488Z,4.90
2019-03-27T14:03:42.477Z,6.80
2019-03-27T14:04:42.458Z,5.10
2019-03-27T14:05:42.485Z,5.30
2019-03-27T14:06:44.762Z,5.40
2019-03-27T14:07:42.479Z,5.20
2019-03-27T14:08:42.458Z,5.20
2019-03-27T14:09:42.468Z,5.70
2019-03-27T14:10:42.477Z,4.80